Погода Поляна неделю

Могилёвская область, Белоруссия

26 мая-01 июня
  • 26мая
    Сегодня
    +12°
    +26°
    Небольшая облачность
    ВремяПогодаТемператураВлажностьДавлениеВетер, м/сВероятность осадков
    00:00Ясно и безоблачно+15°C63 %756 мм2.5 м/с2 %
    03:00Ясно и безоблачно+13°C69 %756 мм2.2 м/с2 %
    06:00Облачно с прояснениями+12°C74 %756 мм1.8 м/с2 %
    09:00Ясно и безоблачно+19°C54 %757 мм1.1 м/с2 %
    12:00Облачно с прояснениями+23°C34 %757 мм1.9 м/с2 %
    15:00Небольшая облачность+25°C33 %757 мм1.8 м/с2 %
    18:00Ясно и безоблачно+25°C34 %756 мм2.7 м/с2 %
    21:00Ясно и безоблачно+21°C51 %756 мм1.8 м/с2 %
  • 27мая
    Понедельник
    +13°
    +26°
    Небольшая облачность
    ВремяПогодаТемператураВлажностьДавлениеВетер, м/сВероятность осадков
    00:00Ясно и безоблачно+14°C68 %756 мм1.5 м/с2 %
    03:00Небольшая облачность+13°C78 %756 мм2.4 м/с2 %
    06:00Облачно с прояснениями+13°C69 %756 мм2.5 м/с2 %
    09:00Практически безоблачно+20°C60 %756 мм1.9 м/с2 %
    12:00Практически безоблачно+25°C38 %756 мм3.5 м/с2 %
    15:00Небольшая облачность+26°C37 %755 мм2.9 м/с2 %
    18:00Ясно и безоблачно+26°C39 %754 мм2.2 м/с6 %
    21:00Ясно и безоблачно+21°C64 %754 мм2.5 м/с1 %
  • 28мая
    Вторник
    +14°
    +26°
    Практически безоблачно
    ВремяПогодаТемператураВлажностьДавлениеВетер, м/сВероятность осадков
    00:00Ясно и безоблачно+16°C75 %754 мм2.2 м/с2 %
    03:00Ясно и безоблачно+14°C84 %754 мм2.2 м/с2 %
    06:00Ясно и безоблачно+14°C81 %753 мм2.7 м/с2 %
    09:00Практически безоблачно+21°C62 %754 мм2.5 м/с2 %
    12:00Практически безоблачно+25°C37 %753 мм3.7 м/с2 %
    15:00Практически безоблачно+25°C34 %752 мм3.8 м/с5 %
    18:00Небольшая облачность+26°C39 %751 мм3.5 м/с20 %
    21:00Ясно и безоблачно+22°C59 %751 мм4.0 м/с5 %
  • 29мая
    Среда
    +13°
    +27°
    Практически безоблачно
    ВремяПогодаТемператураВлажностьДавлениеВетер, м/сВероятность осадков
    00:00Ясно и безоблачно+17°C80 %751 мм3.3 м/с2 %
    03:00Практически безоблачно+15°C84 %750 мм3.0 м/с2 %
    06:00Ясно и безоблачно+14°C87 %750 мм3.1 м/с3 %
    09:00Практически безоблачно+20°C64 %750 мм2.6 м/с2 %
    12:00Практически безоблачно+26°C35 %749 мм3.3 м/с5 %
    15:00Практически безоблачно+27°C28 %749 мм3.9 м/с22 %
    18:00Ясно и безоблачно+26°C30 %747 мм3.4 м/с15 %
    21:00Практически безоблачно+23°C46 %747 мм0.8 м/с5 %
  • 30мая
    Четверг
    +14°
    +26°
    Ясно и безоблачно
    ВремяПогодаТемператураВлажностьДавлениеВетер, м/сВероятность осадков
    00:00Ясно и безоблачно+17°C58 %747 мм2.2 м/с2 %
    03:00Облачно с прояснениями+15°C58 %746 мм2.5 м/с4 %
    06:00Облачно с прояснениями+14°C65 %746 мм2.3 м/с4 %
    09:00Облачно с прояснениями+19°C58 %746 мм2.9 м/с5 %
    12:00Облачно с прояснениями+23°C48 %746 мм4.9 м/с24 %
    15:00Ясно и безоблачно+25°C44 %745 мм5.4 м/с39 %
    18:00Облачно с прояснениями, ливень+23°C60 %745 мм4.1 м/с41 %
    21:00Ясно и безоблачно+21°C68 %745 мм2.3 м/с17 %
Мы используем cookies
Соглашаюсь